Skip to main content
BCDF logo

BCDF · Horizon Kinetics Blockchain Development ETF ETF

Alerts for BCDF
$34.01 0.00 (0.00%) At close · Sep 4

Shares sold short and not yet covered, reported twice monthly. Days to cover is the reported short position divided by average daily volume.

BCDF Latest Reported Short Interest

FINRA reported 1,932 BCDF shares sold short as of the August 14, 2026 settlement date, a decrease of 515 shares. Days to cover was 2.54 based on FINRA's reported average daily volume.

Official FINRA short-interest data · share counts are restated for subsequent splits of this listing

Short Interest History

Settlement Date Current Position Previous Position Change Days to Cover
2026-09-15 Scheduled
FINRA publishes Sep 24
2026-08-31 Scheduled
FINRA publishes Sep 10
2026-08-14 1,932 2,447 -515 2.54
2026-07-31 2,447 1,517 +930 4.21
2026-07-15 1,517 957 +560 2.10
2026-06-30 957 16,971 -16,014 1.00
2026-06-15 16,971 13,520 +3,451 13.88
2026-05-29 13,520 3,796 +9,724 5.48
2026-05-15 3,796 2,246 +1,550 1.94
2026-04-30 2,246 7,643 -5,397 1.00
2026-04-15 7,643 14,383 -6,740 3.89
2026-03-31 14,383 7,922 +6,461 5.84
2026-03-13 7,922 3,539 +4,383 2.66
2026-02-27 3,539 3,650 -111 2.14
2026-02-13 3,650 2,699 +951 1.41
2026-01-30 2,699 3,137 -438 1.00
2026-01-15 3,137 10,383 -7,246 1.59
2025-12-31 10,383 1,293 +9,090 7.08
2025-12-15 1,293 2,230 -937 1.00
2025-11-28 2,230 3,306 -1,076 1.00
2025-11-14 3,306 355 +2,951 1.91
2025-10-31 355 7,226 -6,871 1.00
2025-10-15 7,226 6,438 +788 1.71
2025-09-30 6,438 6,102 +336 7.96
2025-09-15 6,102 5,335 +767 5.36

Full FINRA short interest reporting calendar

Showing 1–23 of 23 settlements